Time;durP1;ratioP1;P1;durP2;ratioP2;P2;SDS_P1;SDS_P2;PMS_P1;PMS_P2;Temp;Humidity;BMP_temperature;BMP_pressure;BME280_temperature;BME280_humidity;BME280_pressure;Samples;Min_cycle;Max_cycle;Signal;HPM_P1;HPM_P2
2023/10/19 00:02:42;;;;;;;;;;;;;;;17.86;55.71;97644.84;10288270;28;901;-69
2023/10/19 00:07:39;;;;;;;;;;;;;;;17.85;55.56;97640.56;10287925;28;939;-69
2023/10/19 00:12:34;;;;;;;;;;;;;;;17.84;55.59;97632.75;10287318;28;1951;-70
2023/10/19 00:17:32;;;;;;;;;;;;;;;17.83;55.50;97639.00;10286526;28;884;-70
2023/10/19 00:22:30;;;;;;;;;;;;;;;17.81;55.80;97620.66;10286868;28;927;-70
2023/10/19 00:27:27;;;;;;;;;;;;;;;17.80;55.74;97608.44;10287277;28;981;-70
2023/10/19 00:32:24;;;;;;;;;;;;;;;17.79;55.86;97603.25;10286447;28;1945;-69
2023/10/19 00:37:28;;;;;;;;;;;;;;;17.78;55.91;97604.22;10286265;28;943;-70
2023/10/19 00:42:29;;;;;;;;;;;;;;;17.77;55.87;97599.94;10285590;28;874;-70
2023/10/19 00:47:30;;;;;;;;;;;;;;;17.77;55.82;97605.19;10286019;28;886;-69
2023/10/19 00:52:26;;;;;;;;;;;;;;;17.75;55.76;97587.69;10285954;28;1918;-70
2023/10/19 00:57:33;;;;;;;;;;;;;;;17.74;55.85;97596.56;10286259;28;829;-70
2023/10/19 01:02:29;;;;;;;;;;;;;;;17.74;55.84;97598.38;10285736;28;818;-69
2023/10/19 01:07:29;;;;;;;;;;;;;;;17.71;55.74;97586.25;10284789;28;893;-70
2023/10/19 01:17:21;;;;;;;;;;;;;;;17.70;56.11;97579.31;10285036;28;833;-70
2023/10/19 01:22:17;;;;;;;;;;;;;;;17.70;55.87;97583.75;10284855;28;1013;-70
2023/10/19 01:27:14;;;;;;;;;;;;;;;17.68;55.98;97583.88;10284621;28;778;-70
2023/10/19 01:32:11;;;;;;;;;;;;;;;17.66;55.83;97572.59;10284645;28;1902;-70
2023/10/19 01:37:07;;;;;;;;;;;;;;;17.67;55.88;97566.38;10284366;28;840;-70
2023/10/19 01:42:08;;;;;;;;;;;;;;;17.65;55.79;97557.75;10284513;28;960;-70
2023/10/19 01:47:05;;;;;;;;;;;;;;;17.65;56.06;97573.53;10284382;28;988;-70
2023/10/19 01:52:02;;;;;;;;;;;;;;;17.64;56.01;97563.97;10276371;28;1973;-69
2023/10/19 01:56:57;;;;;;;;;;;;;;;17.62;56.19;97560.63;10284829;28;957;-69
2023/10/19 02:01:54;;;;;;;;;;;;;;;17.63;56.19;97570.22;10284147;28;841;-70
2023/10/19 02:06:52;;;;;;;;;;;;;;;17.62;56.08;97568.53;10284640;28;1040;-70
2023/10/19 02:11:48;;;;;;;;;;;;;;;17.60;56.22;97573.06;10283851;28;1952;-70
2023/10/19 02:16:46;;;;;;;;;;;;;;;17.60;56.14;97565.16;10283866;28;808;-70
2023/10/19 02:21:42;;;;;;;;;;;;;;;17.59;55.98;97555.59;10290756;28;845;-70
2023/10/19 02:26:38;;;;;;;;;;;;;;;17.59;56.02;97563.50;10291441;28;783;-70
2023/10/19 02:31:34;;;;;;;;;;;;;;;17.59;56.11;97565.28;10291247;28;1898;-70
2023/10/19 02:36:30;;;;;;;;;;;;;;;17.58;56.21;97568.88;10291042;28;766;-70
2023/10/19 02:41:29;;;;;;;;;;;;;;;17.56;56.04;97563.72;10290984;28;969;-69
2023/10/19 02:46:25;;;;;;;;;;;;;;;17.55;56.14;97562.03;10290693;28;937;-69
2023/10/19 02:51:21;;;;;;;;;;;;;;;17.55;56.12;97562.03;10290313;28;1980;-70
2023/10/19 02:56:18;;;;;;;;;;;;;;;17.54;56.28;97563.00;10290336;28;909;-70
2023/10/19 03:01:17;;;;;;;;;;;;;;;17.53;56.17;97567.44;10290825;28;931;-69
2023/10/19 03:06:13;;;;;;;;;;;;;;;17.53;56.19;97551.63;10290848;28;889;-70
2023/10/19 03:11:13;;;;;;;;;;;;;;;17.52;56.23;97555.22;10289714;28;1902;-69
2023/10/19 03:16:09;;;;;;;;;;;;;;;17.51;56.37;97550.91;10290147;28;850;-70
2023/10/19 03:21:05;;;;;;;;;;;;;;;17.51;56.37;97547.44;10289319;28;874;-70
2023/10/19 03:31:20;;;;;;;;;;;;;;;17.49;56.12;97533.53;10288827;28;1955;-70
2023/10/19 03:36:16;;;;;;;;;;;;;;;17.49;56.34;97538.81;10288720;28;973;-69
2023/10/19 03:41:12;;;;;;;;;;;;;;;17.49;56.38;97536.19;10289253;28;785;-70
2023/10/19 03:46:22;;;;;;;;;;;;;;;17.48;56.38;97537.16;10289023;28;870;-70
2023/10/19 03:51:18;;;;;;;;;;;;;;;17.49;56.37;97528.28;10280046;28;1985;-69
2023/10/19 03:56:14;;;;;;;;;;;;;;;17.46;56.43;97528.53;10287973;28;928;-70
2023/10/19 04:01:10;;;;;;;;;;;;;;;17.46;56.35;97531.16;10287227;28;784;-69
2023/10/19 04:06:13;;;;;;;;;;;;;;;17.45;56.26;97532.97;10287607;28;936;-70
2023/10/19 04:11:18;;;;;;;;;;;;;;;17.46;56.33;97523.25;10287295;28;1906;-69
2023/10/19 04:16:14;;;;;;;;;;;;;;;17.44;56.39;97498.81;10287840;28;853;-70
2023/10/19 04:21:10;;;;;;;;;;;;;;;17.50;56.20;97503.59;10286471;28;995;-70
2023/10/19 04:26:13;;;;;;;;;;;;;;;17.50;56.12;97498.34;10302904;28;727;-69
2023/10/19 04:31:13;;;;;;;;;;;;;;;17.53;56.06;97500.75;10287305;28;1898;-69
2023/10/19 04:36:11;;;;;;;;;;;;;;;17.57;56.00;97499.53;10287133;28;865;-70
2023/10/19 04:41:10;;;;;;;;;;;;;;;17.59;55.90;97488.91;10284827;28;874;-70
2023/10/19 04:46:08;;;;;;;;;;;;;;;17.60;55.96;97491.41;10286723;28;825;-70
2023/10/19 04:51:04;;;;;;;;;;;;;;;17.64;55.79;97482.31;10285826;28;1907;-69
2023/10/19 04:56:00;;;;;;;;;;;;;;;17.66;55.83;97480.41;10286264;28;1568;-70
2023/10/19 05:00:58;;;;;;;;;;;;;;;17.68;55.82;97478.50;10286179;28;821;-70
2023/10/19 05:05:54;;;;;;;;;;;;;;;17.72;55.70;97487.81;10285444;28;851;-69
2023/10/19 05:10:50;;;;;;;;;;;;;;;17.77;55.58;97478.72;10284575;28;1961;-70
2023/10/19 05:15:47;;;;;;;;;;;;;;;17.81;55.51;97472.25;10285696;28;845;-69
2023/10/19 05:20:43;;;;;;;;;;;;;;;17.85;55.46;97482.44;10285165;28;963;-70
2023/10/19 05:25:39;;;;;;;;;;;;;;;17.90;55.26;97484.72;10285496;28;888;-69
2023/10/19 05:30:35;;;;;;;;;;;;;;;17.91;55.30;97484.56;10285481;28;1890;-70
2023/10/19 05:35:31;;;;;;;;;;;;;;;17.96;55.35;97486.84;10284852;28;869;-70
2023/10/19 05:40:30;;;;;;;;;;;;;;;17.96;55.24;97489.50;10284610;28;846;-70
2023/10/19 05:45:27;;;;;;;;;;;;;;;17.98;55.36;97495.47;10285076;28;846;-70
2023/10/19 05:50:23;;;;;;;;;;;;;;;18.00;55.17;97493.56;10276079;28;1979;-70
2023/10/19 05:55:21;;;;;;;;;;;;;;;18.09;55.01;97498.09;10291232;28;810;-70
2023/10/19 06:00:20;;;;;;;;;;;;;;;18.08;54.97;97491.16;10292519;28;785;-70
2023/10/19 06:05:16;;;;;;;;;;;;;;;18.10;55.25;97496.28;10292635;28;872;-70
2023/10/19 06:10:15;;;;;;;;;;;;;;;18.12;55.17;97504.91;10291790;28;1898;-70
2023/10/19 06:15:11;;;;;;;;;;;;;;;18.14;54.92;97503.84;10289463;28;1090;-70
2023/10/19 06:20:08;;;;;;;;;;;;;;;18.13;55.17;97499.53;10291062;28;940;-70
2023/10/19 06:25:07;;;;;;;;;;;;;;;18.15;55.10;97502.84;10290928;28;875;-70
2023/10/19 06:30:03;;;;;;;;;;;;;;;18.22;54.99;97523.47;10291801;28;1919;-70
2023/10/19 06:34:59;;;;;;;;;;;;;;;18.22;55.02;97521.69;10291498;28;906;-71
2023/10/19 06:39:55;;;;;;;;;;;;;;;18.19;55.13;97516.66;10290915;28;840;-70
2023/10/19 06:44:53;;;;;;;;;;;;;;;18.15;55.34;97526.59;10292084;28;963;-70
2023/10/19 06:49:50;;;;;;;;;;;;;;;18.12;55.48;97526.00;10290458;28;2052;-69
2023/10/19 06:54:46;;;;;;;;;;;;;;;18.07;55.45;97523.72;10291013;28;859;-70
2023/10/19 06:59:43;;;;;;;;;;;;;;;18.08;55.40;97530.69;10290865;28;987;-72
2023/10/19 07:04:38;;;;;;;;;;;;;;;18.03;55.65;97532.03;10289403;28;790;-73
2023/10/19 07:09:36;;;;;;;;;;;;;;;18.02;55.61;97541.72;10289437;28;961;-72
2023/10/19 07:14:32;;;;;;;;;;;;;;;18.05;55.79;97540.63;10289590;28;1951;-74
2023/10/19 07:19:29;;;;;;;;;;;;;;;18.08;55.43;97541.25;10289550;28;873;-73
2023/10/19 07:24:28;;;;;;;;;;;;;;;18.10;55.50;97546.38;10289869;28;792;-73
2023/10/19 07:29:24;;;;;;;;;;;;;;;18.09;55.53;97548.19;10289055;28;856;-70
2023/10/19 07:34:25;;;;;;;;;;;;;;;18.12;55.43;97547.94;10288517;28;1894;-69
2023/10/19 07:39:22;;;;;;;;;;;;;;;18.13;55.50;97548.75;10289885;28;840;-69
2023/10/19 07:44:19;;;;;;;;;;;;;;;18.16;55.51;97559.91;10288522;28;970;-69
2023/10/19 07:49:15;;;;;;;;;;;;;;;18.16;55.24;97559.91;10288326;28;1259;-70
2023/10/19 07:54:12;;;;;;;;;;;;;;;18.21;55.42;97572.75;10288946;28;1977;-70
2023/10/19 07:59:08;;;;;;;;;;;;;;;18.22;55.37;97568.31;10289194;28;829;-70
2023/10/19 08:04:03;;;;;;;;;;;;;;;18.22;55.34;97566.50;10288196;28;798;-69
2023/10/19 08:08:59;;;;;;;;;;;;;;;18.25;55.31;97568.06;10288265;28;802;-70
2023/10/19 08:13:55;;;;;;;;;;;;;;;18.26;55.31;97564.44;10287943;28;1886;-69
2023/10/19 08:18:52;;;;;;;;;;;;;;;18.26;55.30;97556.53;10287280;28;778;-70
2023/10/19 08:23:48;;;;;;;;;;;;;;;18.26;55.41;97556.53;10287795;28;873;-69
2023/10/19 08:28:45;;;;;;;;;;;;;;;18.30;55.09;97550.91;10286829;28;1012;-70
2023/10/19 08:33:41;;;;;;;;;;;;;;;18.31;55.27;97555.22;10287227;28;1894;-69
2023/10/19 08:38:37;;;;;;;;;;;;;;;18.31;55.00;97557.88;10286387;28;946;-70
2023/10/19 08:43:33;;;;;;;;;;;;;;;18.31;55.27;97551.72;10286869;28;967;-69
2023/10/19 08:48:29;;;;;;;;;;;;;;;18.34;55.21;97554.97;10286228;28;761;-69
2023/10/19 08:53:25;;;;;;;;;;;;;;;18.35;55.11;97547.91;10286904;28;1906;-69
2023/10/19 08:58:22;;;;;;;;;;;;;;;18.35;55.33;97548.72;10285753;28;863;-70
2023/10/19 09:03:17;;;;;;;;;;;;;;;18.35;55.27;97542.63;10285541;28;822;-69
2023/10/19 09:08:14;;;;;;;;;;;;;;;18.36;55.15;97545.13;10285522;28;940;-70
2023/10/19 09:13:12;;;;;;;;;;;;;;;18.36;55.23;97531.09;10285142;28;1898;-69
2023/10/19 09:18:08;;;;;;;;;;;;;;;18.34;55.22;97533.06;10285790;28;874;-69
2023/10/19 09:23:07;;;;;;;;;;;;;;;18.32;55.30;97540.25;10285544;28;857;-70
2023/10/19 09:28:03;;;;;;;;;;;;;;;18.30;55.28;97529.81;10285347;28;863;-70
2023/10/19 09:32:59;;;;;;;;;;;;;;;18.27;55.42;97539.78;10284699;28;1897;-69
2023/10/19 09:37:55;;;;;;;;;;;;;;;18.22;55.51;97542.78;10284034;28;885;-70
2023/10/19 09:42:52;;;;;;;;;;;;;;;18.23;55.41;97533.06;10285262;28;794;-69
2023/10/19 09:47:48;;;;;;;;;;;;;;;18.21;55.57;97534.97;10284242;28;986;-70
2023/10/19 09:52:43;;;;;;;;;;;;;;;18.18;55.65;97536.91;10283540;28;1914;-70
2023/10/19 09:57:39;;;;;;;;;;;;;;;18.18;55.68;97529.00;10284570;28;873;-70
2023/10/19 10:02:35;;;;;;;;;;;;;;;18.19;55.52;97527.19;10283967;28;821;-70
2023/10/19 10:07:31;;;;;;;;;;;;;;;18.21;55.56;97524.41;10283777;28;888;-70
2023/10/19 10:12:28;;;;;;;;;;;;;;;18.22;55.56;97515.56;10284252;28;1965;-70
2023/10/19 10:17:24;;;;;;;;;;;;;;;18.20;55.51;97501.66;10283934;28;937;-70
2023/10/19 10:22:21;;;;;;;;;;;;;;;18.16;56.03;97517.72;10284130;28;953;-70
2023/10/19 10:27:19;;;;;;;;;;;;;;;18.17;55.94;97506.22;10283184;28;856;-70
2023/10/19 10:32:15;;;;;;;;;;;;;;;18.17;55.72;97502.75;10283312;28;1902;-70
2023/10/19 10:37:13;;;;;;;;;;;;;;;18.15;55.84;97513.41;10282656;28;850;-70
2023/10/19 10:42:09;;;;;;;;;;;;;;;18.15;55.88;97516.03;10288360;28;864;-69
2023/10/19 10:47:06;;;;;;;;;;;;;;;18.16;55.90;97509.81;10290532;28;793;-69
2023/10/19 10:52:02;;;;;;;;;;;;;;;18.16;55.63;97504.56;10289423;28;1901;-69
2023/10/19 10:56:58;;;;;;;;;;;;;;;18.15;55.98;97494.13;10290150;28;1083;-69
2023/10/19 11:01:54;;;;;;;;;;;;;;;18.14;55.66;97498.56;10290702;28;770;-69
2023/10/19 11:06:50;;;;;;;;;;;;;;;18.14;56.02;97487.19;10289901;28;897;-68
2023/10/19 11:11:46;;;;;;;;;;;;;;;18.16;56.06;97498.44;10290109;28;1910;-68
2023/10/19 11:16:43;;;;;;;;;;;;;;;18.15;55.83;97497.59;10289694;28;841;-69
2023/10/19 11:21:40;;;;;;;;;;;;;;;18.14;55.83;97485.38;10290323;28;1739;-69
2023/10/19 11:26:36;;;;;;;;;;;;;;;18.18;55.85;97486.81;10289083;28;886;-69
2023/10/19 11:31:37;;;;;;;;;;;;;;;18.17;55.96;97487.75;10288773;28;1957;-69
2023/10/19 11:36:34;;;;;;;;;;;;;;;18.14;55.97;97474.84;10288633;28;957;-69
2023/10/19 11:41:30;;;;;;;;;;;;;;;18.16;56.02;97480.81;10289039;28;866;-69
2023/10/19 11:46:26;;;;;;;;;;;;;;;18.21;55.85;97469.06;10289447;28;773;-69
2023/10/19 11:51:22;;;;;;;;;;;;;;;18.18;55.96;97463.09;10289046;28;1910;-69
2023/10/19 11:56:20;;;;;;;;;;;;;;;18.18;55.99;97444.63;10288752;28;1322;-69
2023/10/19 12:01:16;;;;;;;;;;;;;;;18.18;56.08;97447.25;10288119;28;891;-69
2023/10/19 12:06:18;;;;;;;;;;;;;;;18.15;56.12;97438.75;10288540;28;908;-69
2023/10/19 12:11:18;;;;;;;;;;;;;;;18.13;56.00;97438.91;10287619;28;1973;-70
2023/10/19 12:16:17;;;;;;;;;;;;;;;18.10;56.30;97433.00;10287976;28;879;-69
2023/10/19 12:21:17;;;;;;;;;;;;;;;18.10;56.24;97423.34;10286615;28;983;-69
2023/10/19 12:26:14;;;;;;;;;;;;;;;18.09;56.31;97413.72;10286427;28;1177;-73
2023/10/19 12:31:10;;;;;;;;;;;;;;;18.15;56.07;97420.28;10286691;28;1957;-70
2023/10/19 12:36:31;;;;;;;;;;;;;;;18.17;55.93;97419.22;10287175;28;839;-68
2023/10/19 12:41:30;;;;;;;;;;;;;;;18.21;55.77;97418.94;10286992;28;964;-69
2023/10/19 12:46:27;;;;;;;;;;;;;;;18.15;56.12;97415.03;10285934;28;1069;-69
2023/10/19 12:51:23;;;;;;;;;;;;;;;18.12;56.13;97416.09;10286092;28;1967;-70
2023/10/19 12:56:19;;;;;;;;;;;;;;;18.19;56.06;97411.19;10285574;28;947;-69
2023/10/19 13:01:19;;;;;;;;;;;;;;;18.22;56.08;97415.38;10285263;28;881;-69
2023/10/19 13:06:15;;;;;;;;;;;;;;;18.23;55.96;97417.88;10285506;28;923;-69
2023/10/19 13:11:14;;;;;;;;;;;;;;;18.24;56.04;97434.53;10285037;28;1953;-69
2023/10/19 13:16:10;;;;;;;;;;;;;;;18.25;55.92;97425.66;10285534;28;879;-71
2023/10/19 13:21:06;;;;;;;;;;;;;;;18.26;56.00;97422.91;10285424;28;792;-71
2023/10/19 13:26:08;;;;;;;;;;;;;;;18.27;56.24;97421.94;10285318;28;778;-71
2023/10/19 13:31:04;;;;;;;;;;;;;;;18.28;55.94;97407.78;10285194;28;1893;-70
2023/10/19 13:36:00;;;;;;;;;;;;;;;18.30;56.07;97411.13;10284471;28;874;-70
2023/10/19 13:40:56;;;;;;;;;;;;;;;18.30;56.05;97410.31;10284477;28;1072;-71
2023/10/19 13:45:53;;;;;;;;;;;;;;;18.31;55.96;97409.31;10284498;28;776;-70
2023/10/19 13:50:49;;;;;;;;;;;;;;;18.30;56.25;97407.66;10284878;28;1985;-70
2023/10/19 13:55:45;;;;;;;;;;;;;;;18.29;56.50;97416.56;10284723;28;961;-70
2023/10/19 14:00:41;;;;;;;;;;;;;;;18.30;56.49;97420.84;10283921;28;875;-70
2023/10/19 14:05:37;;;;;;;;;;;;;;;18.32;56.31;97421.56;10283902;28;881;-70
2023/10/19 14:10:33;;;;;;;;;;;;;;;18.33;56.29;97410.88;10283727;28;1955;-70
2023/10/19 14:15:28;;;;;;;;;;;;;;;18.37;56.42;97406.19;10288261;28;802;-70
2023/10/19 14:20:24;;;;;;;;;;;;;;;18.38;56.12;97399.94;10292418;28;841;-69
2023/10/19 14:25:21;;;;;;;;;;;;;;;18.38;56.06;97397.31;10291446;28;929;-70
2023/10/19 14:30:17;;;;;;;;;;;;;;;18.38;56.18;97384.97;10291163;28;1963;-71
2023/10/19 14:35:14;;;;;;;;;;;;;;;18.41;56.20;97383.88;10290531;28;875;-71
2023/10/19 14:40:10;;;;;;;;;;;;;;;18.44;56.03;97383.59;10290920;28;837;-71
2023/10/19 14:45:09;;;;;;;;;;;;;;;18.47;55.97;97362.28;10290649;28;962;-71
2023/10/19 14:50:05;;;;;;;;;;;;;;;18.47;55.93;97351.72;10291007;28;1917;-70
2023/10/19 14:55:01;;;;;;;;;;;;;;;18.47;56.00;97346.44;10290363;28;906;-70
2023/10/19 14:59:56;;;;;;;;;;;;;;;18.49;55.82;97336.56;10289616;28;846;-71
2023/10/19 15:04:52;;;;;;;;;;;;;;;18.51;56.00;97333.81;10290225;28;947;-71
2023/10/19 15:09:48;;;;;;;;;;;;;;;18.50;56.06;97322.44;10290645;28;826;-71
2023/10/19 15:14:44;;;;;;;;;;;;;;;18.52;55.88;97320.50;10289775;28;1959;-71
2023/10/19 15:19:40;;;;;;;;;;;;;;;18.53;56.17;97310.78;10291002;28;772;-70
2023/10/19 15:24:36;;;;;;;;;;;;;;;18.53;55.86;97313.44;10289516;28;891;-70
2023/10/19 15:29:32;;;;;;;;;;;;;;;18.62;55.81;97302.91;10289160;28;870;-71
2023/10/19 15:34:30;;;;;;;;;;;;;;;18.58;55.97;97301.50;10289110;28;1957;-71
2023/10/19 15:39:27;;;;;;;;;;;;;;;18.57;56.06;97294.53;10288898;28;863;-71
2023/10/19 15:44:23;;;;;;;;;;;;;;;18.62;56.97;97281.81;10288759;28;908;-71
2023/10/19 15:49:19;;;;;;;;;;;;;;;18.62;56.79;97286.25;10288137;28;1336;-70
2023/10/19 15:54:16;;;;;;;;;;;;;;;18.61;56.85;97280.13;10288237;28;1918;-70
2023/10/19 15:59:12;;;;;;;;;;;;;;;18.60;57.06;97273.19;10288154;28;891;-70
2023/10/19 16:04:08;;;;;;;;;;;;;;;18.59;57.00;97271.50;10287993;28;775;-70
2023/10/19 16:09:04;;;;;;;;;;;;;;;18.58;57.00;97267.22;10288368;28;844;-71
2023/10/19 16:14:00;;;;;;;;;;;;;;;18.56;57.16;97257.75;10287485;28;1969;-71
2023/10/19 16:18:56;;;;;;;;;;;;;;;18.56;57.13;97244.56;10287969;28;864;-70
2023/10/19 16:23:52;;;;;;;;;;;;;;;18.53;57.22;97237.75;10287107;28;1674;-71
2023/10/19 16:28:49;;;;;;;;;;;;;;;18.51;57.28;97236.22;10286895;28;939;-70
2023/10/19 16:33:45;;;;;;;;;;;;;;;18.49;57.17;97235.50;10286798;28;1914;-69
2023/10/19 16:38:41;;;;;;;;;;;;;;;18.51;57.22;97226.50;10286281;28;1656;-71
2023/10/19 16:43:37;;;;;;;;;;;;;;;18.54;56.92;97234.13;10285779;28;1020;-70
2023/10/19 16:48:33;;;;;;;;;;;;;;;18.56;56.91;97236.66;10286238;28;837;-71
2023/10/19 16:53:29;;;;;;;;;;;;;;;18.57;57.05;97236.50;10286666;28;1918;-71
2023/10/19 16:58:25;;;;;;;;;;;;;;;18.56;56.96;97224.28;10285260;28;1246;-70
2023/10/19 17:03:21;;;;;;;;;;;;;;;18.60;57.03;97230.13;10285707;28;825;-70
2023/10/19 17:08:17;;;;;;;;;;;;;;;18.61;56.90;97231.81;10286137;28;919;-71
2023/10/19 17:13:13;;;;;;;;;;;;;;;18.62;57.09;97226.41;10285298;28;1965;-70
2023/10/19 17:18:09;;;;;;;;;;;;;;;18.64;56.98;97230.72;10285224;28;857;-70
2023/10/19 17:23:04;;;;;;;;;;;;;;;18.66;56.77;97244.63;10285718;28;768;-71
2023/10/19 17:28:00;;;;;;;;;;;;;;;18.65;56.99;97235.84;10284396;28;882;-71
2023/10/19 17:32:58;;;;;;;;;;;;;;;18.66;57.02;97226.16;10285505;28;1894;-72
2023/10/19 17:37:54;;;;;;;;;;;;;;;18.66;56.75;97223.50;10285540;28;875;-71
2023/10/19 17:42:50;;;;;;;;;;;;;;;18.69;56.74;97218.78;10284062;28;858;-70
2023/10/19 17:47:47;;;;;;;;;;;;;;;18.68;56.83;97219.78;10284576;28;993;-71
2023/10/19 17:52:43;;;;;;;;;;;;;;;18.69;56.68;97218.78;10292783;28;1921;-70
2023/10/19 17:57:39;;;;;;;;;;;;;;;18.70;56.58;97203.78;10293533;28;819;-71
2023/10/19 18:02:36;;;;;;;;;;;;;;;18.72;56.55;97209.78;10292547;28;879;-70
2023/10/19 18:07:32;;;;;;;;;;;;;;;18.72;56.58;97207.13;10293173;28;951;-70
2023/10/19 18:12:28;;;;;;;;;;;;;;;18.72;56.48;97213.25;10292203;28;1953;-71
2023/10/19 18:17:24;;;;;;;;;;;;;;;18.74;56.37;97199.94;10292074;28;826;-72
2023/10/19 18:22:20;;;;;;;;;;;;;;;18.73;56.51;97211.44;10291836;28;839;-70
2023/10/19 18:27:16;;;;;;;;;;;;;;;18.74;56.55;97207.84;10292331;28;806;-71
2023/10/19 18:32:12;;;;;;;;;;;;;;;18.75;56.45;97193.69;10290858;28;1898;-70
2023/10/19 18:37:08;;;;;;;;;;;;;;;18.76;56.40;97190.13;10291307;28;860;-70
2023/10/19 18:42:08;;;;;;;;;;;;;;;18.74;56.56;97174.38;10291086;28;887;-71
2023/10/19 18:47:04;;;;;;;;;;;;;;;18.75;56.46;97164.69;10290928;28;965;-70
2023/10/19 18:52:00;;;;;;;;;;;;;;;18.78;56.39;97181.06;10290906;28;1917;-70
2023/10/19 18:56:57;;;;;;;;;;;;;;;18.78;56.44;97175.78;10290493;28;899;-69
2023/10/19 19:01:53;;;;;;;;;;;;;;;18.79;56.42;97168.72;10289219;28;923;-70
2023/10/19 19:06:49;;;;;;;;;;;;;;;18.78;56.36;97169.69;10290833;28;876;-71
2023/10/19 19:11:45;;;;;;;;;;;;;;;18.80;56.47;97170.38;10290374;28;1902;-70
2023/10/19 19:16:43;;;;;;;;;;;;;;;18.81;56.36;97175.53;10289791;28;870;-70
2023/10/19 19:21:42;;;;;;;;;;;;;;;18.82;56.46;97149.97;10289615;28;907;-71
2023/10/19 19:26:38;;;;;;;;;;;;;;;18.81;56.23;97132.47;10290103;28;857;-70
2023/10/19 19:31:34;;;;;;;;;;;;;;;18.81;56.15;97153.56;10288652;28;1898;-71
2023/10/19 19:36:30;;;;;;;;;;;;;;;18.82;56.34;97150.81;10288524;28;821;-71
2023/10/19 19:41:26;;;;;;;;;;;;;;;18.82;56.13;97168.44;10289479;28;835;-71
2023/10/19 19:46:22;;;;;;;;;;;;;;;18.81;56.30;97157.06;10288777;28;754;-71
2023/10/19 19:51:18;;;;;;;;;;;;;;;18.80;56.38;97149.28;10289041;28;1977;-70
2023/10/19 19:56:14;;;;;;;;;;;;;;;18.79;56.44;97131.78;10288849;28;950;-70
2023/10/19 20:01:10;;;;;;;;;;;;;;;18.77;56.30;97149.56;10288168;28;986;-70
2023/10/19 20:06:07;;;;;;;;;;;;;;;18.74;56.46;97131.31;10288088;28;878;-70
2023/10/19 20:11:04;;;;;;;;;;;;;;;18.71;56.53;97127.16;10287424;28;1894;-70
2023/10/19 20:16:00;;;;;;;;;;;;;;;18.69;56.70;97118.53;10287686;28;874;-70
2023/10/19 20:20:56;;;;;;;;;;;;;;;18.69;56.90;97122.97;10288061;28;889;-70
2023/10/19 20:25:52;;;;;;;;;;;;;;;18.64;56.67;97120.75;10287314;28;842;-70
2023/10/19 20:30:48;;;;;;;;;;;;;;;18.62;56.67;97118.22;10287403;28;1898;-70
2023/10/19 20:35:50;;;;;;;;;;;;;;;18.60;56.81;97106.13;10286817;28;944;-70
2023/10/19 20:40:47;;;;;;;;;;;;;;;18.58;56.84;97116.03;10286808;28;829;-70
2023/10/19 20:45:42;;;;;;;;;;;;;;;18.56;56.61;97120.59;10288663;28;1647;-70
2023/10/19 20:50:39;;;;;;;;;;;;;;;18.55;56.95;97106.56;10286712;28;1914;-70
2023/10/19 20:55:35;;;;;;;;;;;;;;;18.53;56.87;97100.59;10286338;28;814;-70
2023/10/19 21:00:31;;;;;;;;;;;;;;;18.51;56.81;97106.97;10285898;28;784;-70
2023/10/19 21:05:26;;;;;;;;;;;;;;;18.50;56.81;97087.69;10286278;28;815;-70
2023/10/19 21:10:22;;;;;;;;;;;;;;;18.49;56.95;97071.97;10284908;28;1898;-70
2023/10/19 21:15:18;;;;;;;;;;;;;;;18.47;56.65;97042.25;10286662;28;869;-70
2023/10/19 21:20:20;;;;;;;;;;;;;;;18.46;56.93;97019.50;10285268;28;851;-70
2023/10/19 21:25:16;;;;;;;;;;;;;;;18.44;56.85;97009.06;10283949;28;1018;-70
2023/10/19 21:30:12;;;;;;;;;;;;;;;18.44;56.90;97013.53;10285045;28;1973;-70
2023/10/19 21:35:11;;;;;;;;;;;;;;;18.42;56.67;97024.22;10284858;28;758;-70
2023/10/19 21:40:07;;;;;;;;;;;;;;;18.43;56.78;97022.41;10284177;28;883;-70
2023/10/19 21:45:03;;;;;;;;;;;;;;;18.39;56.90;97016.56;10285173;28;818;-70
2023/10/19 21:49:59;;;;;;;;;;;;;;;18.38;56.92;97013.09;10284035;28;1408;-70
2023/10/19 21:54:55;;;;;;;;;;;;;;;18.35;56.87;96989.66;10284259;28;1967;-70
2023/10/19 21:59:51;;;;;;;;;;;;;;;18.36;56.96;97001.00;10284304;28;955;-70
2023/10/19 22:04:46;;;;;;;;;;;;;;;18.34;56.92;96993.25;10283637;28;725;-70
2023/10/19 22:09:42;;;;;;;;;;;;;;;18.32;57.06;96983.81;10284178;28;1020;-71
2023/10/19 22:14:39;;;;;;;;;;;;;;;18.30;57.01;96993.66;10284006;28;1894;-70
2023/10/19 22:19:36;;;;;;;;;;;;;;;18.32;56.90;96981.19;10284517;28;857;-70
2023/10/19 22:24:32;;;;;;;;;;;;;;;18.31;56.97;96972.44;10284145;28;818;-71
2023/10/19 22:29:28;;;;;;;;;;;;;;;18.30;56.97;96967.28;10283806;28;966;-70
2023/10/19 22:34:24;;;;;;;;;;;;;;;18.28;57.26;96974.50;10284806;28;1890;-70
2023/10/19 22:39:21;;;;;;;;;;;;;;;18.27;57.15;96964.94;10291303;28;952;-70
2023/10/19 22:44:17;;;;;;;;;;;;;;;18.27;57.05;96951.75;10291122;28;959;-70
2023/10/19 22:49:12;;;;;;;;;;;;;;;18.25;57.08;96951.88;10286454;28;1247;-70
2023/10/19 22:54:08;;;;;;;;;;;;;;;18.24;57.08;96938.84;10286716;28;1914;-70
2023/10/19 22:59:04;;;;;;;;;;;;;;;18.23;57.02;96943.25;10290044;28;921;-70
2023/10/19 23:04:00;;;;;;;;;;;;;;;18.22;57.06;96946.88;10291031;28;833;-70
2023/10/19 23:08:58;;;;;;;;;;;;;;;18.22;57.10;96938.16;10290058;28;915;-70
2023/10/19 23:13:54;;;;;;;;;;;;;;;18.21;57.42;96933.81;10289883;28;1902;-70
2023/10/19 23:18:52;;;;;;;;;;;;;;;18.20;57.17;96921.63;10290893;28;875;-70
2023/10/19 23:23:48;;;;;;;;;;;;;;;18.18;57.11;96911.22;10289552;28;852;-70
2023/10/19 23:28:46;;;;;;;;;;;;;;;18.17;57.13;96901.66;10289488;28;865;-70
2023/10/19 23:33:42;;;;;;;;;;;;;;;18.17;57.19;96905.13;10289203;28;1890;-70
2023/10/19 23:38:37;;;;;;;;;;;;;;;18.16;57.41;96900.81;10289702;28;849;-70
2023/10/19 23:43:34;;;;;;;;;;;;;;;18.13;57.39;96895.84;10290070;28;888;-70
2023/10/19 23:48:30;;;;;;;;;;;;;;;18.14;57.30;96908.03;10288353;28;1064;-70
2023/10/19 23:53:26;;;;;;;;;;;;;;;18.12;57.30;96902.06;10289440;28;2029;-70
2023/10/19 23:58:22;;;;;;;;;;;;;;;18.12;57.10;96894.16;10288284;28;865;-70
